sensor_id;sensor_type;location;lat;lon;timestamp;P1;durP1;ratioP1;P2;durP2;ratioP2
61477;SDS011;47345;52.334;10.392;2023-05-07T00:00:23;17.40;;;9.20;;
61477;SDS011;47345;52.334;10.392;2023-05-07T00:02:54;19.80;;;10.20;;
61477;SDS011;47345;52.334;10.392;2023-05-07T00:05:25;15.30;;;9.10;;
61477;SDS011;47345;52.334;10.392;2023-05-07T00:07:56;15.10;;;9.40;;
61477;SDS011;47345;52.334;10.392;2023-05-07T00:10:27;16.60;;;10.00;;
61477;SDS011;47345;52.334;10.392;2023-05-07T00:12:58;16.00;;;9.40;;
61477;SDS011;47345;52.334;10.392;2023-05-07T00:15:29;14.10;;;8.70;;
61477;SDS011;47345;52.334;10.392;2023-05-07T00:18:00;16.10;;;9.80;;
61477;SDS011;47345;52.334;10.392;2023-05-07T00:20:31;14.20;;;8.40;;
61477;SDS011;47345;52.334;10.392;2023-05-07T00:23:03;15.60;;;9.20;;
61477;SDS011;47345;52.334;10.392;2023-05-07T00:25:34;17.70;;;9.30;;
61477;SDS011;47345;52.334;10.392;2023-05-07T00:28:04;13.00;;;8.40;;
61477;SDS011;47345;52.334;10.392;2023-05-07T00:30:35;17.30;;;9.30;;
61477;SDS011;47345;52.334;10.392;2023-05-07T00:33:06;17.80;;;10.20;;
61477;SDS011;47345;52.334;10.392;2023-05-07T00:35:36;17.20;;;9.90;;
61477;SDS011;47345;52.334;10.392;2023-05-07T00:38:07;15.80;;;9.90;;
61477;SDS011;47345;52.334;10.392;2023-05-07T00:40:38;17.10;;;9.50;;
61477;SDS011;47345;52.334;10.392;2023-05-07T00:43:08;18.00;;;10.10;;
61477;SDS011;47345;52.334;10.392;2023-05-07T00:45:40;16.30;;;9.50;;
61477;SDS011;47345;52.334;10.392;2023-05-07T00:48:11;15.90;;;9.60;;
61477;SDS011;47345;52.334;10.392;2023-05-07T00:50:42;18.10;;;9.80;;
61477;SDS011;47345;52.334;10.392;2023-05-07T00:53:15;16.00;;;9.30;;
61477;SDS011;47345;52.334;10.392;2023-05-07T00:55:46;15.80;;;9.40;;
61477;SDS011;47345;52.334;10.392;2023-05-07T00:58:17;14.90;;;7.90;;
61477;SDS011;47345;52.334;10.392;2023-05-07T01:00:48;16.20;;;8.90;;
61477;SDS011;47345;52.334;10.392;2023-05-07T01:03:19;10.60;;;7.50;;
61477;SDS011;47345;52.334;10.392;2023-05-07T01:05:51;9.90;;;7.10;;
61477;SDS011;47345;52.334;10.392;2023-05-07T01:08:24;14.80;;;7.80;;
61477;SDS011;47345;52.334;10.392;2023-05-07T01:10:57;11.40;;;7.40;;
61477;SDS011;47345;52.334;10.392;2023-05-07T01:13:28;13.10;;;7.90;;
61477;SDS011;47345;52.334;10.392;2023-05-07T01:15:59;11.70;;;7.50;;
61477;SDS011;47345;52.334;10.392;2023-05-07T01:18:31;11.80;;;7.00;;
61477;SDS011;47345;52.334;10.392;2023-05-07T01:21:02;13.70;;;6.70;;
61477;SDS011;47345;52.334;10.392;2023-05-07T01:23:35;10.80;;;6.90;;
61477;SDS011;47345;52.334;10.392;2023-05-07T01:26:07;11.80;;;7.20;;
61477;SDS011;47345;52.334;10.392;2023-05-07T01:28:38;11.80;;;6.60;;
61477;SDS011;47345;52.334;10.392;2023-05-07T01:31:09;11.70;;;6.30;;
61477;SDS011;47345;52.334;10.392;2023-05-07T01:33:41;11.30;;;5.90;;
61477;SDS011;47345;52.334;10.392;2023-05-07T01:36:14;9.10;;;6.00;;
61477;SDS011;47345;52.334;10.392;2023-05-07T01:38:46;12.20;;;6.40;;
61477;SDS011;47345;52.334;10.392;2023-05-07T01:41:17;9.00;;;5.70;;
61477;SDS011;47345;52.334;10.392;2023-05-07T01:43:49;10.60;;;6.10;;
61477;SDS011;47345;52.334;10.392;2023-05-07T01:46:21;11.10;;;6.00;;
61477;SDS011;47345;52.334;10.392;2023-05-07T01:48:52;8.30;;;5.60;;
61477;SDS011;47345;52.334;10.392;2023-05-07T01:51:23;8.90;;;5.60;;
61477;SDS011;47345;52.334;10.392;2023-05-07T01:53:54;12.10;;;6.60;;
61477;SDS011;47345;52.334;10.392;2023-05-07T01:56:25;8.80;;;6.10;;
61477;SDS011;47345;52.334;10.392;2023-05-07T01:58:56;8.90;;;5.70;;
61477;SDS011;47345;52.334;10.392;2023-05-07T02:01:28;9.30;;;6.10;;
61477;SDS011;47345;52.334;10.392;2023-05-07T02:03:59;9.80;;;5.30;;
61477;SDS011;47345;52.334;10.392;2023-05-07T02:06:30;10.60;;;6.10;;
61477;SDS011;47345;52.334;10.392;2023-05-07T02:09:01;9.90;;;5.90;;
61477;SDS011;47345;52.334;10.392;2023-05-07T02:11:32;8.80;;;5.50;;
61477;SDS011;47345;52.334;10.392;2023-05-07T02:14:03;9.20;;;5.70;;
61477;SDS011;47345;52.334;10.392;2023-05-07T02:16:33;8.60;;;5.40;;
61477;SDS011;47345;52.334;10.392;2023-05-07T02:19:05;7.80;;;5.30;;
61477;SDS011;47345;52.334;10.392;2023-05-07T02:21:35;8.00;;;5.40;;
61477;SDS011;47345;52.334;10.392;2023-05-07T02:24:07;8.50;;;5.60;;
61477;SDS011;47345;52.334;10.392;2023-05-07T02:26:39;7.30;;;5.30;;
61477;SDS011;47345;52.334;10.392;2023-05-07T02:29:10;7.90;;;5.40;;
61477;SDS011;47345;52.334;10.392;2023-05-07T02:31:41;8.10;;;5.20;;
61477;SDS011;47345;52.334;10.392;2023-05-07T02:34:12;7.30;;;4.60;;
61477;SDS011;47345;52.334;10.392;2023-05-07T02:36:42;7.70;;;5.30;;
61477;SDS011;47345;52.334;10.392;2023-05-07T02:39:13;8.50;;;5.20;;
61477;SDS011;47345;52.334;10.392;2023-05-07T02:41:45;6.60;;;5.00;;
61477;SDS011;47345;52.334;10.392;2023-05-07T02:44:16;8.30;;;5.30;;
61477;SDS011;47345;52.334;10.392;2023-05-07T02:46:47;8.50;;;5.30;;
61477;SDS011;47345;52.334;10.392;2023-05-07T02:49:18;9.10;;;5.50;;
61477;SDS011;47345;52.334;10.392;2023-05-07T02:51:48;11.40;;;5.70;;
61477;SDS011;47345;52.334;10.392;2023-05-07T02:54:20;14.00;;;5.80;;
61477;SDS011;47345;52.334;10.392;2023-05-07T02:56:51;8.10;;;5.70;;
61477;SDS011;47345;52.334;10.392;2023-05-07T02:59:21;13.90;;;5.00;;
61477;SDS011;47345;52.334;10.392;2023-05-07T03:01:54;9.20;;;5.30;;
61477;SDS011;47345;52.334;10.392;2023-05-07T03:04:25;8.50;;;5.10;;
61477;SDS011;47345;52.334;10.392;2023-05-07T03:06:56;9.00;;;5.30;;
61477;SDS011;47345;52.334;10.392;2023-05-07T03:09:26;9.90;;;5.40;;
61477;SDS011;47345;52.334;10.392;2023-05-07T03:11:57;9.90;;;5.20;;
61477;SDS011;47345;52.334;10.392;2023-05-07T03:14:29;7.20;;;5.30;;
61477;SDS011;47345;52.334;10.392;2023-05-07T03:17:00;7.60;;;5.40;;
61477;SDS011;47345;52.334;10.392;2023-05-07T03:19:31;7.30;;;5.20;;
61477;SDS011;47345;52.334;10.392;2023-05-07T03:22:01;8.50;;;5.60;;
61477;SDS011;47345;52.334;10.392;2023-05-07T03:24:32;7.20;;;4.80;;
61477;SDS011;47345;52.334;10.392;2023-05-07T03:27:03;8.30;;;5.20;;
61477;SDS011;47345;52.334;10.392;2023-05-07T03:29:33;8.90;;;5.30;;
61477;SDS011;47345;52.334;10.392;2023-05-07T03:32:05;7.10;;;4.80;;
61477;SDS011;47345;52.334;10.392;2023-05-07T03:34:36;9.30;;;5.30;;
61477;SDS011;47345;52.334;10.392;2023-05-07T03:37:07;8.30;;;5.20;;
61477;SDS011;47345;52.334;10.392;2023-05-07T03:39:38;7.80;;;5.20;;
61477;SDS011;47345;52.334;10.392;2023-05-07T03:42:09;7.10;;;5.10;;
61477;SDS011;47345;52.334;10.392;2023-05-07T03:44:40;8.40;;;5.60;;
61477;SDS011;47345;52.334;10.392;2023-05-07T03:47:10;8.40;;;5.50;;
61477;SDS011;47345;52.334;10.392;2023-05-07T03:49:42;12.90;;;5.80;;
61477;SDS011;47345;52.334;10.392;2023-05-07T03:52:12;8.10;;;5.60;;
61477;SDS011;47345;52.334;10.392;2023-05-07T03:54:43;8.10;;;5.80;;
61477;SDS011;47345;52.334;10.392;2023-05-07T03:57:13;10.20;;;6.40;;
61477;SDS011;47345;52.334;10.392;2023-05-07T03:59:44;9.40;;;6.00;;
61477;SDS011;47345;52.334;10.392;2023-05-07T04:02:15;8.70;;;6.20;;
61477;SDS011;47345;52.334;10.392;2023-05-07T04:04:46;10.60;;;6.20;;
61477;SDS011;47345;52.334;10.392;2023-05-07T04:07:18;7.00;;;5.30;;
61477;SDS011;47345;52.334;10.392;2023-05-07T04:09:49;7.60;;;5.40;;
61477;SDS011;47345;52.334;10.392;2023-05-07T04:12:19;8.10;;;6.10;;
61477;SDS011;47345;52.334;10.392;2023-05-07T04:14:50;8.50;;;5.20;;
61477;SDS011;47345;52.334;10.392;2023-05-07T04:17:21;6.40;;;4.50;;
61477;SDS011;47345;52.334;10.392;2023-05-07T04:19:51;7.10;;;5.10;;
61477;SDS011;47345;52.334;10.392;2023-05-07T04:22:23;7.40;;;5.10;;
61477;SDS011;47345;52.334;10.392;2023-05-07T04:24:54;7.10;;;5.00;;
61477;SDS011;47345;52.334;10.392;2023-05-07T04:27:25;10.30;;;5.40;;
61477;SDS011;47345;52.334;10.392;2023-05-07T04:29:56;7.30;;;5.30;;
61477;SDS011;47345;52.334;10.392;2023-05-07T04:32:28;8.70;;;5.60;;
61477;SDS011;47345;52.334;10.392;2023-05-07T04:34:59;7.70;;;5.40;;
61477;SDS011;47345;52.334;10.392;2023-05-07T04:37:30;7.90;;;5.60;;
61477;SDS011;47345;52.334;10.392;2023-05-07T04:40:03;9.20;;;5.70;;
61477;SDS011;47345;52.334;10.392;2023-05-07T04:42:35;7.80;;;5.40;;
61477;SDS011;47345;52.334;10.392;2023-05-07T04:45:06;8.10;;;5.50;;
61477;SDS011;47345;52.334;10.392;2023-05-07T04:47:38;7.40;;;5.40;;
61477;SDS011;47345;52.334;10.392;2023-05-07T04:50:10;9.30;;;5.30;;
61477;SDS011;47345;52.334;10.392;2023-05-07T04:52:41;7.90;;;5.50;;
61477;SDS011;47345;52.334;10.392;2023-05-07T04:55:12;7.90;;;5.00;;
61477;SDS011;47345;52.334;10.392;2023-05-07T04:57:42;7.80;;;5.70;;
61477;SDS011;47345;52.334;10.392;2023-05-07T05:00:14;7.70;;;5.60;;
61477;SDS011;47345;52.334;10.392;2023-05-07T05:02:47;8.20;;;5.60;;
61477;SDS011;47345;52.334;10.392;2023-05-07T05:05:18;7.50;;;4.80;;
61477;SDS011;47345;52.334;10.392;2023-05-07T05:07:49;6.80;;;4.70;;
61477;SDS011;47345;52.334;10.392;2023-05-07T05:10:21;7.20;;;5.10;;
61477;SDS011;47345;52.334;10.392;2023-05-07T05:12:52;7.20;;;5.40;;
61477;SDS011;47345;52.334;10.392;2023-05-07T05:15:23;7.90;;;5.60;;
61477;SDS011;47345;52.334;10.392;2023-05-07T05:17:53;8.10;;;5.10;;
61477;SDS011;47345;52.334;10.392;2023-05-07T05:20:24;8.30;;;5.00;;
61477;SDS011;47345;52.334;10.392;2023-05-07T05:22:55;9.10;;;5.40;;
61477;SDS011;47345;52.334;10.392;2023-05-07T05:25:26;8.40;;;4.90;;
61477;SDS011;47345;52.334;10.392;2023-05-07T05:27:57;6.90;;;4.80;;
61477;SDS011;47345;52.334;10.392;2023-05-07T05:30:28;8.30;;;5.20;;
61477;SDS011;47345;52.334;10.392;2023-05-07T05:32:58;9.10;;;5.10;;
61477;SDS011;47345;52.334;10.392;2023-05-07T05:35:29;8.20;;;4.90;;
61477;SDS011;47345;52.334;10.392;2023-05-07T05:38:00;7.10;;;5.10;;
61477;SDS011;47345;52.334;10.392;2023-05-07T05:40:31;6.40;;;5.00;;
61477;SDS011;47345;52.334;10.392;2023-05-07T05:43:01;8.20;;;5.00;;
61477;SDS011;47345;52.334;10.392;2023-05-07T05:45:32;7.10;;;5.10;;
61477;SDS011;47345;52.334;10.392;2023-05-07T05:48:03;9.30;;;6.00;;
61477;SDS011;47345;52.334;10.392;2023-05-07T05:50:36;7.80;;;5.30;;
61477;SDS011;47345;52.334;10.392;2023-05-07T05:53:06;7.70;;;5.20;;
61477;SDS011;47345;52.334;10.392;2023-05-07T05:55:37;7.80;;;5.20;;
61477;SDS011;47345;52.334;10.392;2023-05-07T05:58:08;8.10;;;5.60;;
61477;SDS011;47345;52.334;10.392;2023-05-07T06:00:40;7.50;;;5.40;;
61477;SDS011;47345;52.334;10.392;2023-05-07T06:03:11;8.40;;;5.10;;
61477;SDS011;47345;52.334;10.392;2023-05-07T06:05:42;8.20;;;5.50;;
61477;SDS011;47345;52.334;10.392;2023-05-07T06:08:12;9.60;;;6.20;;
61477;SDS011;47345;52.334;10.392;2023-05-07T06:10:43;7.70;;;5.30;;
61477;SDS011;47345;52.334;10.392;2023-05-07T06:13:14;7.90;;;5.30;;
61477;SDS011;47345;52.334;10.392;2023-05-07T06:15:45;9.90;;;5.90;;
61477;SDS011;47345;52.334;10.392;2023-05-07T06:18:15;11.50;;;7.00;;
61477;SDS011;47345;52.334;10.392;2023-05-07T06:20:46;8.10;;;6.00;;
61477;SDS011;47345;52.334;10.392;2023-05-07T06:23:17;9.80;;;6.30;;
61477;SDS011;47345;52.334;10.392;2023-05-07T06:25:49;8.60;;;6.20;;
61477;SDS011;47345;52.334;10.392;2023-05-07T06:28:20;8.40;;;6.10;;
61477;SDS011;47345;52.334;10.392;2023-05-07T06:30:51;9.10;;;6.00;;
61477;SDS011;47345;52.334;10.392;2023-05-07T06:33:21;8.70;;;6.60;;
61477;SDS011;47345;52.334;10.392;2023-05-07T06:35:52;9.40;;;6.40;;
61477;SDS011;47345;52.334;10.392;2023-05-07T06:38:23;9.80;;;6.80;;
61477;SDS011;47345;52.334;10.392;2023-05-07T06:40:53;8.70;;;6.20;;
61477;SDS011;47345;52.334;10.392;2023-05-07T06:43:24;10.70;;;6.70;;
61477;SDS011;47345;52.334;10.392;2023-05-07T06:45:55;9.10;;;6.30;;
61477;SDS011;47345;52.334;10.392;2023-05-07T06:48:27;9.70;;;6.00;;
61477;SDS011;47345;52.334;10.392;2023-05-07T06:50:57;8.80;;;6.20;;
61477;SDS011;47345;52.334;10.392;2023-05-07T06:53:28;9.10;;;5.90;;
61477;SDS011;47345;52.334;10.392;2023-05-07T06:55:58;9.50;;;6.10;;
61477;SDS011;47345;52.334;10.392;2023-05-07T06:58:29;7.90;;;6.00;;
61477;SDS011;47345;52.334;10.392;2023-05-07T07:01:00;8.80;;;6.00;;
61477;SDS011;47345;52.334;10.392;2023-05-07T07:03:30;8.60;;;6.00;;
61477;SDS011;47345;52.334;10.392;2023-05-07T07:06:01;8.00;;;5.80;;
61477;SDS011;47345;52.334;10.392;2023-05-07T07:08:32;8.30;;;5.90;;
61477;SDS011;47345;52.334;10.392;2023-05-07T07:11:02;7.50;;;5.40;;
61477;SDS011;47345;52.334;10.392;2023-05-07T07:13:33;10.60;;;5.70;;
61477;SDS011;47345;52.334;10.392;2023-05-07T07:16:04;8.80;;;5.70;;
61477;SDS011;47345;52.334;10.392;2023-05-07T07:18:35;10.60;;;5.60;;
61477;SDS011;47345;52.334;10.392;2023-05-07T07:21:06;6.90;;;5.30;;
61477;SDS011;47345;52.334;10.392;2023-05-07T07:23:36;10.30;;;5.40;;
61477;SDS011;47345;52.334;10.392;2023-05-07T07:26:07;9.90;;;5.40;;
61477;SDS011;47345;52.334;10.392;2023-05-07T07:28:43;7.00;;;5.30;;
61477;SDS011;47345;52.334;10.392;2023-05-07T07:31:14;8.50;;;5.60;;
61477;SDS011;47345;52.334;10.392;2023-05-07T07:33:45;7.80;;;5.60;;
61477;SDS011;47345;52.334;10.392;2023-05-07T07:36:20;8.70;;;5.70;;
61477;SDS011;47345;52.334;10.392;2023-05-07T07:39:05;8.30;;;5.60;;
61477;SDS011;47345;52.334;10.392;2023-05-07T07:41:36;8.80;;;6.00;;
61477;SDS011;47345;52.334;10.392;2023-05-07T07:44:06;9.60;;;5.40;;
61477;SDS011;47345;52.334;10.392;2023-05-07T07:46:43;9.20;;;5.80;;
61477;SDS011;47345;52.334;10.392;2023-05-07T07:49:13;8.50;;;5.50;;
61477;SDS011;47345;52.334;10.392;2023-05-07T07:51:44;8.50;;;5.20;;
61477;SDS011;47345;52.334;10.392;2023-05-07T07:54:15;8.60;;;5.60;;
61477;SDS011;47345;52.334;10.392;2023-05-07T07:56:46;8.40;;;5.40;;
61477;SDS011;47345;52.334;10.392;2023-05-07T07:59:16;14.70;;;9.20;;
61477;SDS011;47345;52.334;10.392;2023-05-07T08:01:48;12.80;;;6.20;;
61477;SDS011;47345;52.334;10.392;2023-05-07T08:04:22;5.80;;;4.90;;
61477;SDS011;47345;52.334;10.392;2023-05-07T08:06:53;6.30;;;4.50;;
61477;SDS011;47345;52.334;10.392;2023-05-07T08:09:23;6.50;;;4.90;;
61477;SDS011;47345;52.334;10.392;2023-05-07T08:11:54;8.50;;;4.90;;
61477;SDS011;47345;52.334;10.392;2023-05-07T08:14:25;7.50;;;4.90;;
61477;SDS011;47345;52.334;10.392;2023-05-07T08:16:56;8.00;;;4.80;;
61477;SDS011;47345;52.334;10.392;2023-05-07T08:19:27;8.00;;;5.30;;
61477;SDS011;47345;52.334;10.392;2023-05-07T08:21:58;6.50;;;4.90;;
61477;SDS011;47345;52.334;10.392;2023-05-07T08:24:28;7.50;;;5.00;;
61477;SDS011;47345;52.334;10.392;2023-05-07T08:26:59;7.00;;;4.70;;
61477;SDS011;47345;52.334;10.392;2023-05-07T08:29:30;6.80;;;4.60;;
61477;SDS011;47345;52.334;10.392;2023-05-07T08:32:01;8.30;;;4.90;;
61477;SDS011;47345;52.334;10.392;2023-05-07T08:34:32;6.30;;;4.40;;
61477;SDS011;47345;52.334;10.392;2023-05-07T08:37:02;7.10;;;4.70;;
61477;SDS011;47345;52.334;10.392;2023-05-07T08:39:33;7.00;;;4.80;;
61477;SDS011;47345;52.334;10.392;2023-05-07T08:42:04;8.40;;;5.60;;
61477;SDS011;47345;52.334;10.392;2023-05-07T08:44:35;8.10;;;5.80;;
61477;SDS011;47345;52.334;10.392;2023-05-07T08:47:10;9.30;;;6.10;;
61477;SDS011;47345;52.334;10.392;2023-05-07T08:49:40;7.40;;;5.50;;
61477;SDS011;47345;52.334;10.392;2023-05-07T08:52:12;8.00;;;5.80;;
61477;SDS011;47345;52.334;10.392;2023-05-07T08:54:43;13.50;;;6.30;;
61477;SDS011;47345;52.334;10.392;2023-05-07T08:57:14;7.40;;;5.40;;
61477;SDS011;47345;52.334;10.392;2023-05-07T08:59:48;10.10;;;5.90;;
61477;SDS011;47345;52.334;10.392;2023-05-07T09:02:18;7.80;;;5.90;;
61477;SDS011;47345;52.334;10.392;2023-05-07T09:04:49;8.60;;;5.80;;
61477;SDS011;47345;52.334;10.392;2023-05-07T09:07:21;8.20;;;5.80;;
61477;SDS011;47345;52.334;10.392;2023-05-07T09:09:53;9.30;;;5.70;;
61477;SDS011;47345;52.334;10.392;2023-05-07T09:12:24;6.90;;;5.20;;
61477;SDS011;47345;52.334;10.392;2023-05-07T09:14:55;7.80;;;5.80;;
61477;SDS011;47345;52.334;10.392;2023-05-07T09:17:27;8.80;;;5.30;;
61477;SDS011;47345;52.334;10.392;2023-05-07T09:20:01;7.40;;;5.30;;
61477;SDS011;47345;52.334;10.392;2023-05-07T09:22:37;6.40;;;4.70;;
61477;SDS011;47345;52.334;10.392;2023-05-07T09:25:08;6.80;;;5.00;;
61477;SDS011;47345;52.334;10.392;2023-05-07T09:27:41;8.30;;;5.20;;
61477;SDS011;47345;52.334;10.392;2023-05-07T09:30:12;6.60;;;4.80;;
61477;SDS011;47345;52.334;10.392;2023-05-07T09:32:43;9.00;;;5.00;;
61477;SDS011;47345;52.334;10.392;2023-05-07T09:35:15;7.90;;;5.20;;
61477;SDS011;47345;52.334;10.392;2023-05-07T09:37:49;8.80;;;5.40;;
61477;SDS011;47345;52.334;10.392;2023-05-07T09:40:23;7.60;;;5.20;;
61477;SDS011;47345;52.334;10.392;2023-05-07T09:42:55;8.70;;;5.40;;
61477;SDS011;47345;52.334;10.392;2023-05-07T09:45:37;7.00;;;5.10;;
61477;SDS011;47345;52.334;10.392;2023-05-07T09:48:09;6.60;;;5.00;;
61477;SDS011;47345;52.334;10.392;2023-05-07T09:50:44;6.80;;;5.20;;
61477;SDS011;47345;52.334;10.392;2023-05-07T09:53:20;6.60;;;4.90;;
61477;SDS011;47345;52.334;10.392;2023-05-07T09:55:52;6.30;;;4.60;;
61477;SDS011;47345;52.334;10.392;2023-05-07T09:58:23;7.60;;;4.70;;
61477;SDS011;47345;52.334;10.392;2023-05-07T10:00:56;7.70;;;5.10;;
61477;SDS011;47345;52.334;10.392;2023-05-07T10:03:27;6.20;;;4.30;;
61477;SDS011;47345;52.334;10.392;2023-05-07T10:06:00;6.40;;;4.90;;
61477;SDS011;47345;52.334;10.392;2023-05-07T10:08:32;6.10;;;4.30;;
61477;SDS011;47345;52.334;10.392;2023-05-07T10:11:04;8.50;;;4.40;;
61477;SDS011;47345;52.334;10.392;2023-05-07T10:13:35;6.50;;;5.00;;
61477;SDS011;47345;52.334;10.392;2023-05-07T10:16:07;7.60;;;4.60;;
61477;SDS011;47345;52.334;10.392;2023-05-07T10:18:37;5.30;;;4.70;;
61477;SDS011;47345;52.334;10.392;2023-05-07T10:21:11;7.40;;;4.40;;
61477;SDS011;47345;52.334;10.392;2023-05-07T10:23:47;5.40;;;4.10;;
61477;SDS011;47345;52.334;10.392;2023-05-07T10:26:20;7.00;;;4.40;;
61477;SDS011;47345;52.334;10.392;2023-05-07T10:28:54;6.40;;;3.80;;
61477;SDS011;47345;52.334;10.392;2023-05-07T10:31:35;6.00;;;4.20;;
61477;SDS011;47345;52.334;10.392;2023-05-07T10:34:18;6.00;;;4.10;;
61477;SDS011;47345;52.334;10.392;2023-05-07T10:36:52;7.90;;;4.50;;
61477;SDS011;47345;52.334;10.392;2023-05-07T10:39:24;7.70;;;4.30;;
61477;SDS011;47345;52.334;10.392;2023-05-07T10:41:55;8.50;;;4.70;;
61477;SDS011;47345;52.334;10.392;2023-05-07T10:44:36;6.20;;;4.30;;
61477;SDS011;47345;52.334;10.392;2023-05-07T10:47:07;7.10;;;4.70;;
61477;SDS011;47345;52.334;10.392;2023-05-07T10:49:51;6.50;;;4.40;;
61477;SDS011;47345;52.334;10.392;2023-05-07T10:58:55;6.50;;;4.30;;
61477;SDS011;47345;52.334;10.392;2023-05-07T11:01:52;5.70;;;3.80;;
61477;SDS011;47345;52.334;10.392;2023-05-07T11:04:25;5.80;;;4.20;;
61477;SDS011;47345;52.334;10.392;2023-05-07T11:10:01;4.20;;;3.40;;
61477;SDS011;47345;52.334;10.392;2023-05-07T11:12:49;7.50;;;4.20;;
61477;SDS011;47345;52.334;10.392;2023-05-07T11:18:11;5.30;;;3.70;;
61477;SDS011;47345;52.334;10.392;2023-05-07T11:20:46;7.10;;;4.00;;
61477;SDS011;47345;52.334;10.392;2023-05-07T11:26:45;4.30;;;3.40;;
61477;SDS011;47345;52.334;10.392;2023-05-07T11:29:18;4.10;;;3.40;;
61477;SDS011;47345;52.334;10.392;2023-05-07T11:31:51;4.10;;;3.00;;
61477;SDS011;47345;52.334;10.392;2023-05-07T11:34:23;4.50;;;3.30;;
61477;SDS011;47345;52.334;10.392;2023-05-07T11:36:55;4.40;;;3.10;;
61477;SDS011;47345;52.334;10.392;2023-05-07T11:39:28;5.00;;;3.20;;
61477;SDS011;47345;52.334;10.392;2023-05-07T11:42:00;4.60;;;3.30;;
61477;SDS011;47345;52.334;10.392;2023-05-07T11:44:44;4.40;;;3.20;;
61477;SDS011;47345;52.334;10.392;2023-05-07T11:47:18;3.30;;;2.80;;
61477;SDS011;47345;52.334;10.392;2023-05-07T11:49:50;4.50;;;3.40;;
61477;SDS011;47345;52.334;10.392;2023-05-07T11:52:22;5.70;;;4.00;;
61477;SDS011;47345;52.334;10.392;2023-05-07T11:54:54;6.40;;;4.40;;
61477;SDS011;47345;52.334;10.392;2023-05-07T11:57:26;5.60;;;4.00;;
61477;SDS011;47345;52.334;10.392;2023-05-07T11:59:58;5.70;;;4.10;;
61477;SDS011;47345;52.334;10.392;2023-05-07T12:02:31;8.80;;;3.90;;
61477;SDS011;47345;52.334;10.392;2023-05-07T12:05:03;4.70;;;3.70;;
61477;SDS011;47345;52.334;10.392;2023-05-07T12:07:38;5.30;;;3.70;;
61477;SDS011;47345;52.334;10.392;2023-05-07T12:10:11;4.60;;;3.60;;
61477;SDS011;47345;52.334;10.392;2023-05-07T12:12:45;6.50;;;3.90;;
61477;SDS011;47345;52.334;10.392;2023-05-07T12:15:16;5.30;;;4.20;;
61477;SDS011;47345;52.334;10.392;2023-05-07T12:17:51;4.20;;;3.70;;
61477;SDS011;47345;52.334;10.392;2023-05-07T12:20:22;7.80;;;5.60;;
61477;SDS011;47345;52.334;10.392;2023-05-07T12:22:56;6.40;;;4.60;;
61477;SDS011;47345;52.334;10.392;2023-05-07T12:25:27;6.50;;;4.50;;
61477;SDS011;47345;52.334;10.392;2023-05-07T12:28:01;9.00;;;4.30;;
61477;SDS011;47345;52.334;10.392;2023-05-07T12:30:33;5.30;;;4.10;;
61477;SDS011;47345;52.334;10.392;2023-05-07T12:33:07;5.80;;;4.00;;
61477;SDS011;47345;52.334;10.392;2023-05-07T12:35:39;5.30;;;4.20;;
61477;SDS011;47345;52.334;10.392;2023-05-07T12:38:11;7.40;;;4.50;;
61477;SDS011;47345;52.334;10.392;2023-05-07T12:40:44;6.30;;;5.00;;
61477;SDS011;47345;52.334;10.392;2023-05-07T12:43:19;6.00;;;4.90;;
61477;SDS011;47345;52.334;10.392;2023-05-07T12:45:51;7.40;;;4.30;;
61477;SDS011;47345;52.334;10.392;2023-05-07T12:48:23;6.00;;;4.40;;
61477;SDS011;47345;52.334;10.392;2023-05-07T12:50:55;7.30;;;4.50;;
61477;SDS011;47345;52.334;10.392;2023-05-07T12:53:26;5.70;;;4.30;;
61477;SDS011;47345;52.334;10.392;2023-05-07T12:55:58;8.50;;;4.80;;
61477;SDS011;47345;52.334;10.392;2023-05-07T12:58:29;6.80;;;4.50;;
61477;SDS011;47345;52.334;10.392;2023-05-07T13:01:03;6.10;;;4.00;;
61477;SDS011;47345;52.334;10.392;2023-05-07T13:03:36;6.70;;;4.60;;
61477;SDS011;47345;52.334;10.392;2023-05-07T13:06:08;5.30;;;4.30;;
61477;SDS011;47345;52.334;10.392;2023-05-07T13:08:40;6.50;;;4.50;;
61477;SDS011;47345;52.334;10.392;2023-05-07T13:11:12;6.00;;;4.20;;
61477;SDS011;47345;52.334;10.392;2023-05-07T13:13:43;6.60;;;4.40;;
61477;SDS011;47345;52.334;10.392;2023-05-07T13:16:14;5.60;;;4.10;;
61477;SDS011;47345;52.334;10.392;2023-05-07T13:18:45;5.50;;;3.90;;
61477;SDS011;47345;52.334;10.392;2023-05-07T13:21:15;5.40;;;4.00;;
61477;SDS011;47345;52.334;10.392;2023-05-07T13:23:46;8.00;;;5.10;;
61477;SDS011;47345;52.334;10.392;2023-05-07T13:26:16;8.00;;;4.90;;
61477;SDS011;47345;52.334;10.392;2023-05-07T13:28:54;6.10;;;4.00;;
61477;SDS011;47345;52.334;10.392;2023-05-07T13:31:24;10.50;;;6.00;;
61477;SDS011;47345;52.334;10.392;2023-05-07T13:33:56;6.60;;;4.00;;
61477;SDS011;47345;52.334;10.392;2023-05-07T13:36:28;9.40;;;5.80;;
61477;SDS011;47345;52.334;10.392;2023-05-07T13:39:00;6.30;;;4.20;;
61477;SDS011;47345;52.334;10.392;2023-05-07T13:41:31;6.70;;;4.00;;
61477;SDS011;47345;52.334;10.392;2023-05-07T13:44:04;6.50;;;3.80;;
61477;SDS011;47345;52.334;10.392;2023-05-07T13:46:35;4.80;;;3.70;;
61477;SDS011;47345;52.334;10.392;2023-05-07T13:49:06;6.20;;;3.80;;
61477;SDS011;47345;52.334;10.392;2023-05-07T13:51:39;5.50;;;3.90;;
61477;SDS011;47345;52.334;10.392;2023-05-07T13:54:09;6.50;;;3.90;;
61477;SDS011;47345;52.334;10.392;2023-05-07T13:56:42;4.40;;;3.60;;
61477;SDS011;47345;52.334;10.392;2023-05-07T13:59:12;4.40;;;3.50;;
61477;SDS011;47345;52.334;10.392;2023-05-07T14:01:44;5.90;;;3.70;;
61477;SDS011;47345;52.334;10.392;2023-05-07T14:04:15;4.30;;;3.40;;
61477;SDS011;47345;52.334;10.392;2023-05-07T14:06:47;5.20;;;3.30;;
61477;SDS011;47345;52.334;10.392;2023-05-07T14:09:18;3.80;;;3.20;;
61477;SDS011;47345;52.334;10.392;2023-05-07T14:14:39;6.10;;;4.30;;
61477;SDS011;47345;52.334;10.392;2023-05-07T14:17:11;5.60;;;4.00;;
61477;SDS011;47345;52.334;10.392;2023-05-07T14:19:44;4.40;;;3.60;;
61477;SDS011;47345;52.334;10.392;2023-05-07T14:22:17;4.80;;;3.50;;
61477;SDS011;47345;52.334;10.392;2023-05-07T14:24:54;12.20;;;4.40;;
61477;SDS011;47345;52.334;10.392;2023-05-07T14:27:34;4.90;;;3.40;;
61477;SDS011;47345;52.334;10.392;2023-05-07T14:30:06;4.00;;;3.20;;
61477;SDS011;47345;52.334;10.392;2023-05-07T14:32:37;5.70;;;4.10;;
61477;SDS011;47345;52.334;10.392;2023-05-07T14:35:08;6.00;;;4.40;;
61477;SDS011;47345;52.334;10.392;2023-05-07T14:37:39;5.50;;;4.00;;
61477;SDS011;47345;52.334;10.392;2023-05-07T14:40:11;6.00;;;3.90;;
61477;SDS011;47345;52.334;10.392;2023-05-07T14:42:42;6.70;;;4.60;;
61477;SDS011;47345;52.334;10.392;2023-05-07T14:45:12;5.00;;;4.00;;
61477;SDS011;47345;52.334;10.392;2023-05-07T14:47:43;5.70;;;4.00;;
61477;SDS011;47345;52.334;10.392;2023-05-07T14:50:14;5.10;;;4.20;;
61477;SDS011;47345;52.334;10.392;2023-05-07T14:52:45;8.20;;;4.50;;
61477;SDS011;47345;52.334;10.392;2023-05-07T14:55:16;6.90;;;4.40;;
61477;SDS011;47345;52.334;10.392;2023-05-07T14:57:47;6.70;;;4.30;;
61477;SDS011;47345;52.334;10.392;2023-05-07T15:00:18;5.90;;;4.40;;
61477;SDS011;47345;52.334;10.392;2023-05-07T15:02:49;4.80;;;4.00;;
61477;SDS011;47345;52.334;10.392;2023-05-07T15:05:20;6.20;;;4.60;;
61477;SDS011;47345;52.334;10.392;2023-05-07T15:07:50;5.30;;;4.00;;
61477;SDS011;47345;52.334;10.392;2023-05-07T15:10:24;6.70;;;4.30;;
61477;SDS011;47345;52.334;10.392;2023-05-07T15:12:56;7.00;;;4.10;;
61477;SDS011;47345;52.334;10.392;2023-05-07T15:15:28;5.40;;;4.10;;
61477;SDS011;47345;52.334;10.392;2023-05-07T15:17:59;5.30;;;4.20;;